Time;durP1;ratioP1;P1;durP2;ratioP2;P2;SDS_P1;SDS_P2;PMS_P1;PMS_P2;Temp;Humidity;BMP_temperature;BMP_pressure;BME280_temperature;BME280_humidity;BME280_pressure;Samples;Min_cycle;Max_cycle;Signal;HPM_P1;HPM_P2
2021/11/29 07:15:48;;;;;;;4.03;2.45;;;;;;;;;;10472504;28;20636;-81
2021/11/29 07:20:49;;;;;;;5.55;1.70;;;;;;;;;;10485537;28;20032;-81
2021/11/29 07:25:49;;;;;;;4.88;1.52;;;;;;;;;;10475148;28;20047;-82
2021/11/29 07:30:51;;;;;;;4.03;1.55;;;;;;;;;;10474902;28;20025;-82
2021/11/29 07:35:51;;;;;;;4.03;1.50;;;;;;;;;;10460522;28;20448;-82
2021/11/29 07:40:52;;;;;;;8.20;1.40;;;;;;;;;;10471732;28;20041;-81
2021/11/29 07:45:52;;;;;;;14.82;1.70;;;;;;;;;;10477813;28;20430;-82
2021/11/29 07:50:54;;;;;;;5.43;1.60;;;;;;;;;;10480888;28;20033;-82
2021/11/29 07:55:54;;;;;;;3.67;1.20;;;;;;;;;;10483067;28;20024;-81
2021/11/29 08:00:55;;;;;;;3.75;1.65;;;;;;;;;;10477404;28;20025;-81
2021/11/29 08:05:55;;;;;;;10.95;1.50;;;;;;;;;;10482801;28;20154;-81
2021/11/29 08:10:56;;;;;;;5.40;1.60;;;;;;;;;;10483897;28;20021;-81
2021/11/29 08:15:56;;;;;;;5.17;2.00;;;;;;;;;;10470704;28;20390;-81
2021/11/29 08:20:57;;;;;;;7.10;1.60;;;;;;;;;;10482556;28;20469;-82
2021/11/29 08:25:57;;;;;;;7.07;1.48;;;;;;;;;;10455985;28;20025;-82
2021/11/29 08:30:58;;;;;;;9.48;1.67;;;;;;;;;;10435451;28;20364;-80
2021/11/29 08:35:58;;;;;;;4.05;1.30;;;;;;;;;;10445097;28;20469;-81
2021/11/29 08:40:59;;;;;;;9.23;1.70;;;;;;;;;;10429904;28;20036;-81
2021/11/29 08:45:59;;;;;;;2.50;1.70;;;;;;;;;;10441857;28;20455;-81
2021/11/29 08:51:00;;;;;;;3.58;1.85;;;;;;;;;;10430210;28;20455;-81
2021/11/29 08:56:01;;;;;;;3.00;1.70;;;;;;;;;;10428015;28;20030;-81
2021/11/29 09:01:03;;;;;;;5.30;2.00;;;;;;;;;;10424886;28;20029;-83
2021/11/29 09:06:04;;;;;;;8.90;2.00;;;;;;;;;;10421514;28;20048;-82
2021/11/29 09:11:04;;;;;;;5.15;1.63;;;;;;;;;;10425004;28;20044;-82
2021/11/29 09:16:07;;;;;;;6.15;1.80;;;;;;;;;;10432318;28;20155;-82
2021/11/29 09:21:10;;;;;;;8.32;1.63;;;;;;;;;;10435812;28;20044;-83
2021/11/29 09:26:12;;;;;;;7.15;1.80;;;;;;;;;;10435547;28;20455;-82
2021/11/29 09:31:12;;;;;;;4.68;1.83;;;;;;;;;;10441120;28;20406;-81
2021/11/29 09:36:13;;;;;;;3.92;1.92;;;;;;;;;;10426210;28;20087;-82
2021/11/29 09:41:13;;;;;;;2.45;1.80;;;;;;;;;;10433976;28;20033;-82
2021/11/29 09:46:14;;;;;;;5.90;1.70;;;;;;;;;;10425487;28;20032;-82
2021/11/29 09:51:14;;;;;;;4.22;2.08;;;;;;;;;;10422275;28;20364;-81
2021/11/29 09:56:15;;;;;;;4.97;1.67;;;;;;;;;;10424765;28;20021;-81
2021/11/29 10:01:16;;;;;;;5.63;1.63;;;;;;;;;;10432282;28;20084;-82
2021/11/29 10:06:17;;;;;;;5.07;1.50;;;;;;;;;;10450349;28;20098;-82
2021/11/29 10:11:18;;;;;;;2.07;1.80;;;;;;;;;;10457588;28;20474;-82
2021/11/29 10:16:33;;;;;;;6.22;1.90;;;;;;;;;;10452325;28;20778;-82
2021/11/29 10:21:33;;;;;;;3.03;1.42;;;;;;;;;;10418221;28;20045;-82
2021/11/29 10:26:35;;;;;;;2.03;1.50;;;;;;;;;;10415655;28;20071;-81
2021/11/29 10:31:39;;;;;;;4.40;2.35;;;;;;;;;;10425249;28;20024;-80
2021/11/29 10:36:41;;;;;;;5.10;1.95;;;;;;;;;;10418353;28;20036;-81
2021/11/29 10:41:44;;;;;;;3.00;1.75;;;;;;;;;;10418534;28;20104;-81
2021/11/29 10:46:48;;;;;;;3.20;1.70;;;;;;;;;;10415191;28;20064;-81
2021/11/29 10:51:50;;;;;;;4.03;1.83;;;;;;;;;;10415747;28;20033;-82
2021/11/29 10:56:52;;;;;;;3.72;1.83;;;;;;;;;;10419331;28;20379;-81
2021/11/29 11:01:56;;;;;;;5.82;1.90;;;;;;;;;;10429113;28;20033;-80
2021/11/29 11:07:26;;;;;;;3.45;1.67;;;;;;;;;;10418211;28;20038;-81
2021/11/29 11:12:33;;;;;;;2.95;1.75;;;;;;;;;;10415263;28;20049;-82
2021/11/29 11:17:33;;;;;;;4.78;1.77;;;;;;;;;;10416445;28;20037;-81
2021/11/29 11:22:36;;;;;;;1.87;1.50;;;;;;;;;;10418548;28;20036;-81
2021/11/29 11:27:40;;;;;;;5.13;1.90;;;;;;;;;;10423718;28;20547;-82
2021/11/29 11:32:48;;;;;;;2.47;1.42;;;;;;;;;;10425632;28;20069;-82
2021/11/29 11:37:54;;;;;;;2.10;1.60;;;;;;;;;;10433342;28;20025;-81
2021/11/29 11:42:55;;;;;;;1.98;1.60;;;;;;;;;;10432371;28;20044;-82
2021/11/29 11:47:59;;;;;;;3.47;1.75;;;;;;;;;;10422085;28;20107;-82
2021/11/29 11:53:01;;;;;;;3.35;1.70;;;;;;;;;;10423777;28;20076;-81
2021/11/29 11:58:04;;;;;;;2.25;1.60;;;;;;;;;;10424656;28;20087;-82
2021/11/29 12:03:10;;;;;;;8.23;1.60;;;;;;;;;;10432628;28;20037;-81
2021/11/29 12:08:38;;;;;;;2.08;1.65;;;;;;;;;;10426389;28;20080;-81
2021/11/29 12:13:43;;;;;;;1.60;1.43;;;;;;;;;;10431101;28;20199;-82
2021/11/29 12:18:45;;;;;;;5.47;1.63;;;;;;;;;;10440886;28;20040;-81
2021/11/29 12:24:04;;;;;;;1.77;1.42;;;;;;;;;;10438755;28;20033;-81
2021/11/29 12:29:05;;;;;;;3.47;1.63;;;;;;;;;;10672880;23;20060;-85
2021/11/29 12:34:09;;;;;;;2.35;1.50;;;;;;;;;;10461215;28;20455;-82
2021/11/29 12:39:09;;;;;;;1.70;1.60;;;;;;;;;;10453389;28;20025;-83
2021/11/29 12:44:10;;;;;;;5.23;1.90;;;;;;;;;;10447114;28;20044;-83
2021/11/29 12:49:34;;;;;;;2.15;1.67;;;;;;;;;;10460009;28;20583;-83
2021/11/29 12:54:41;;;;;;;3.10;1.90;;;;;;;;;;10460717;28;20029;-82
2021/11/29 12:59:59;;;;;;;1.80;1.67;;;;;;;;;;10449051;28;20090;-82
2021/11/29 13:05:00;;;;;;;2.33;1.40;;;;;;;;;;10430664;28;20116;-82
2021/11/29 13:10:00;;;;;;;2.50;1.60;;;;;;;;;;10426436;28;20582;-82
2021/11/29 13:15:24;;;;;;;4.23;1.40;;;;;;;;;;10426414;28;20536;-82
2021/11/29 13:20:45;;;;;;;5.55;1.45;;;;;;;;;;10433160;28;20486;-82
2021/11/29 13:25:45;;;;;;;2.45;1.42;;;;;;;;;;10450193;28;20036;-81
2021/11/29 13:30:46;;;;;;;3.87;1.40;;;;;;;;;;10445396;28;20042;-81
2021/11/29 13:35:47;;;;;;;2.03;1.38;;;;;;;;;;10464822;28;20512;-81
2021/11/29 13:40:49;;;;;;;2.22;1.60;;;;;;;;;;10465294;28;20060;-82
2021/11/29 13:45:49;;;;;;;4.63;1.58;;;;;;;;;;10455864;28;20037;-82
2021/11/29 13:50:54;;;;;;;2.25;1.63;;;;;;;;;;10454471;28;20025;-82
2021/11/29 13:55:58;;;;;;;4.68;1.58;;;;;;;;;;10438139;28;20040;-82
2021/11/29 14:01:02;;;;;;;3.05;1.42;;;;;;;;;;10453689;28;20037;-82
2021/11/29 14:06:05;;;;;;;4.38;1.40;;;;;;;;;;10438373;28;20120;-84
2021/11/29 14:11:15;;;;;;;5.38;1.27;;;;;;;;;;10440370;28;20438;-84
2021/11/29 14:16:21;;;;;;;1.40;1.30;;;;;;;;;;10452272;28;20037;-84
2021/11/29 14:21:23;;;;;;;1.63;1.40;;;;;;;;;;10455744;28;20485;-85
2021/11/29 14:26:39;;;;;;;4.03;1.50;;;;;;;;;;10455418;28;20526;-84
2021/11/29 14:31:41;;;;;;;1.08;1.02;;;;;;;;;;10454348;28;20087;-85
2021/11/29 14:36:47;;;;;;;4.32;1.80;;;;;;;;;;10442450;28;20391;-84
2021/11/29 14:41:58;;;;;;;3.10;1.45;;;;;;;;;;10444275;28;20434;-84
2021/11/29 14:47:09;;;;;;;1.75;1.45;;;;;;;;;;10443406;28;20037;-84
2021/11/29 14:52:15;;;;;;;3.80;1.30;;;;;;;;;;10456911;28;20035;-83
2021/11/29 14:57:20;;;;;;;1.30;1.20;;;;;;;;;;10449182;28;20376;-81
2021/11/29 15:02:20;;;;;;;1.65;1.48;;;;;;;;;;10452231;28;20116;-81
2021/11/29 15:07:29;;;;;;;2.47;1.40;;;;;;;;;;10453152;28;20100;-81
2021/11/29 15:12:36;;;;;;;2.10;1.40;;;;;;;;;;10454354;28;20576;-80
2021/11/29 15:17:41;;;;;;;3.45;1.50;;;;;;;;;;10443876;28;20467;-81
2021/11/29 15:22:49;;;;;;;1.85;1.50;;;;;;;;;;10455024;28;20052;-81
2021/11/29 15:27:50;;;;;;;1.50;1.25;;;;;;;;;;10454805;28;20056;-81
2021/11/29 15:32:53;;;;;;;1.30;1.20;;;;;;;;;;10440674;28;20045;-81
2021/11/29 15:38:17;;;;;;;3.15;1.30;;;;;;;;;;10450501;28;20438;-80
2021/11/29 15:43:22;;;;;;;1.40;1.30;;;;;;;;;;10460684;28;20429;-81
2021/11/29 15:48:25;;;;;;;1.45;1.35;;;;;;;;;;10462947;28;20077;-81
2021/11/29 15:53:26;;;;;;;1.40;1.30;;;;;;;;;;10460765;28;20020;-81
2021/11/29 15:58:27;;;;;;;2.40;1.20;;;;;;;;;;10460146;28;20051;-81
2021/11/29 16:03:28;;;;;;;1.40;1.30;;;;;;;;;;10461679;28;20390;-81
2021/11/29 16:08:28;;;;;;;2.53;1.25;;;;;;;;;;10462042;28;20029;-81
2021/11/29 16:13:29;;;;;;;3.30;1.60;;;;;;;;;;10462264;28;20459;-81
2021/11/29 16:18:30;;;;;;;2.85;1.50;;;;;;;;;;10454475;28;20113;-82
2021/11/29 16:23:32;;;;;;;2.45;1.65;;;;;;;;;;10455533;28;20383;-81
2021/11/29 16:28:32;;;;;;;3.25;1.60;;;;;;;;;;10458317;28;20669;-81
2021/11/29 16:33:33;;;;;;;3.25;1.80;;;;;;;;;;10444084;28;20043;-82
2021/11/29 16:38:35;;;;;;;6.68;2.30;;;;;;;;;;10431598;28;20092;-81
2021/11/29 16:43:36;;;;;;;3.47;2.03;;;;;;;;;;10435494;28;20061;-82
2021/11/29 16:48:37;;;;;;;4.28;2.00;;;;;;;;;;10447690;28;20029;-80
2021/11/29 16:53:37;;;;;;;3.25;1.95;;;;;;;;;;10447619;28;20458;-83
2021/11/29 16:58:40;;;;;;;5.82;2.13;;;;;;;;;;10431498;28;20095;-84
2021/11/29 17:03:41;;;;;;;3.08;1.92;;;;;;;;;;10433366;28;20120;-84
2021/11/29 17:08:41;;;;;;;9.50;1.77;;;;;;;;;;10431070;28;20108;-83
2021/11/29 17:13:42;;;;;;;3.03;1.83;;;;;;;;;;10435603;28;20566;-84
2021/11/29 17:18:42;;;;;;;4.97;2.13;;;;;;;;;;10441141;28;20120;-85
2021/11/29 17:23:42;;;;;;;3.38;2.00;;;;;;;;;;10439668;28;20504;-84
2021/11/29 17:28:43;;;;;;;2.78;2.10;;;;;;;;;;10450672;28;20056;-83
2021/11/29 17:33:43;;;;;;;2.87;1.93;;;;;;;;;;10443522;28;20112;-84
2021/11/29 17:38:44;;;;;;;3.00;2.00;;;;;;;;;;10451400;28;20430;-83
2021/11/29 17:43:44;;;;;;;2.80;2.22;;;;;;;;;;10449862;28;21066;-88
2021/11/29 17:48:45;;;;;;;4.82;2.60;;;;;;;;;;10453290;28;20522;-88
2021/11/29 17:53:45;;;;;;;3.20;2.45;;;;;;;;;;10456067;28;20112;-88
2021/11/29 17:58:46;;;;;;;4.55;2.40;;;;;;;;;;10450067;28;20427;-87
2021/11/29 18:03:47;;;;;;;6.15;2.83;;;;;;;;;;10440969;28;20036;-90
2021/11/29 18:09:16;;;;;;;5.10;2.70;;;;;;;;;;10454297;28;20079;-88
2021/11/29 18:14:10;;;;;;;3.25;2.72;;;;;;;;;;10443299;28;20040;-85
2021/11/29 18:19:11;;;;;;;4.90;2.90;;;;;;;;;;10436081;28;20485;-84
2021/11/29 18:24:12;;;;;;;6.00;2.90;;;;;;;;;;10451852;28;20454;-85
2021/11/29 18:29:13;;;;;;;4.95;2.83;;;;;;;;;;10456812;28;20049;-84
2021/11/29 18:34:13;;;;;;;7.80;3.25;;;;;;;;;;10453544;28;20120;-84
2021/11/29 18:39:15;;;;;;;5.43;3.30;;;;;;;;;;10457784;28;20052;-83
2021/11/29 18:44:16;;;;;;;5.22;3.30;;;;;;;;;;10457552;28;20466;-84
2021/11/29 18:49:16;;;;;;;3.92;2.80;;;;;;;;;;10452822;28;20123;-85
2021/11/29 18:54:17;;;;;;;4.20;2.83;;;;;;;;;;10453500;28;20055;-85
2021/11/29 18:59:17;;;;;;;9.45;3.10;;;;;;;;;;10456850;28;20041;-86
2021/11/29 19:04:18;;;;;;;5.13;2.95;;;;;;;;;;10455807;28;20039;-85
2021/11/29 19:09:19;;;;;;;6.57;3.22;;;;;;;;;;10456022;28;20033;-84
2021/11/29 19:14:20;;;;;;;5.82;3.28;;;;;;;;;;10446782;28;20135;-85
2021/11/29 19:19:21;;;;;;;4.83;3.07;;;;;;;;;;10443091;28;20151;-84
2021/11/29 19:24:23;;;;;;;5.85;3.30;;;;;;;;;;10445285;28;20445;-84
2021/11/29 19:29:24;;;;;;;9.93;3.13;;;;;;;;;;10430876;28;20490;-84
2021/11/29 19:34:24;;;;;;;3.83;2.90;;;;;;;;;;10435014;28;20487;-84
2021/11/29 19:39:25;;;;;;;5.37;3.30;;;;;;;;;;10443025;28;20053;-84
2021/11/29 19:44:25;;;;;;;5.20;3.25;;;;;;;;;;10437298;28;20454;-84
2021/11/29 19:49:26;;;;;;;6.70;3.53;;;;;;;;;;10442885;28;20065;-83
2021/11/29 19:54:27;;;;;;;6.60;3.90;;;;;;;;;;10445926;28;20042;-83
2021/11/29 19:59:29;;;;;;;6.43;4.13;;;;;;;;;;10448709;28;20040;-84
2021/11/29 20:04:30;;;;;;;6.70;3.63;;;;;;;;;;10442152;28;20026;-83
2021/11/29 20:09:30;;;;;;;14.00;4.72;;;;;;;;;;10438087;28;20115;-84
2021/11/29 20:14:32;;;;;;;8.47;4.33;;;;;;;;;;10440379;28;20029;-84
2021/11/29 20:19:38;;;;;;;12.80;4.82;;;;;;;;;;10445172;28;20458;-83
2021/11/29 20:24:38;;;;;;;8.77;4.50;;;;;;;;;;10451124;28;20518;-84
2021/11/29 20:29:39;;;;;;;12.85;4.95;;;;;;;;;;10460316;28;20128;-84
2021/11/29 20:34:39;;;;;;;17.30;5.15;;;;;;;;;;10461419;28;20458;-83
2021/11/29 20:39:40;;;;;;;12.07;5.40;;;;;;;;;;10457103;28;20039;-84
2021/11/29 20:44:40;;;;;;;18.47;5.77;;;;;;;;;;10454110;28;20443;-85
2021/11/29 20:49:46;;;;;;;11.15;5.63;;;;;;;;;;10459798;28;20462;-84
2021/11/29 20:54:46;;;;;;;13.57;6.28;;;;;;;;;;10451535;28;20359;-83
2021/11/29 20:59:47;;;;;;;13.03;5.87;;;;;;;;;;10456227;28;20032;-84
2021/11/29 21:04:48;;;;;;;11.15;6.10;;;;;;;;;;10456632;28;20986;-84
2021/11/29 21:09:49;;;;;;;11.30;6.20;;;;;;;;;;10458306;28;20029;-84
2021/11/29 21:14:49;;;;;;;12.13;5.72;;;;;;;;;;10450510;28;20021;-84
2021/11/29 21:19:50;;;;;;;20.00;6.63;;;;;;;;;;10449547;28;20120;-85
2021/11/29 21:24:53;;;;;;;13.95;5.80;;;;;;;;;;10456070;28;20454;-84
2021/11/29 21:29:53;;;;;;;19.92;6.43;;;;;;;;;;10456931;28;20044;-84
2021/11/29 21:34:54;;;;;;;12.95;6.00;;;;;;;;;;10455004;28;20033;-84
2021/11/29 21:39:55;;;;;;;16.63;7.20;;;;;;;;;;10455642;28;20067;-85
2021/11/29 21:44:56;;;;;;;14.60;7.47;;;;;;;;;;10438468;28;20060;-84
2021/11/29 21:49:56;;;;;;;18.98;7.15;;;;;;;;;;10434839;28;20083;-83
2021/11/29 21:54:56;;;;;;;15.43;6.50;;;;;;;;;;10457237;28;20060;-83
2021/11/29 21:59:57;;;;;;;22.42;6.50;;;;;;;;;;10453868;28;20037;-84
2021/11/29 22:05:52;;;;;;;18.15;5.90;;;;;;;;;;10438169;28;20643;-78
2021/11/29 22:10:52;;;;;;;16.05;6.20;;;;;;;;;;10412736;28;20042;-80
2021/11/29 22:15:52;;;;;;;13.53;6.00;;;;;;;;;;10388848;28;20089;-78
2021/11/29 22:20:53;;;;;;;11.47;6.00;;;;;;;;;;10395485;28;20921;-79
2021/11/29 22:25:54;;;;;;;10.10;5.30;;;;;;;;;;10385377;28;20797;-80
2021/11/29 22:30:54;;;;;;;12.63;5.47;;;;;;;;;;10393697;28;20465;-79
2021/11/29 22:35:55;;;;;;;12.00;5.50;;;;;;;;;;10371507;28;20558;-77
2021/11/29 22:40:55;;;;;;;12.63;5.20;;;;;;;;;;10366807;28;20034;-77
2021/11/29 22:45:56;;;;;;;10.20;5.30;;;;;;;;;;10366144;28;20045;-79
2021/11/29 22:50:56;;;;;;;7.63;5.03;;;;;;;;;;10369666;28;20032;-79
2021/11/29 22:55:57;;;;;;;13.95;6.10;;;;;;;;;;10367274;28;20038;-82
2021/11/29 23:00:57;;;;;;;12.52;5.45;;;;;;;;;;10377613;28;20069;-80
2021/11/29 23:06:04;;;;;;;13.27;5.13;;;;;;;;;;10375948;28;20371;-83
2021/11/29 23:11:05;;;;;;;11.48;4.53;;;;;;;;;;10394299;28;20025;-80
2021/11/29 23:16:06;;;;;;;8.02;4.88;;;;;;;;;;10367186;28;20477;-81
2021/11/29 23:21:06;;;;;;;13.02;4.82;;;;;;;;;;10350304;28;20448;-80
2021/11/29 23:26:07;;;;;;;7.47;4.33;;;;;;;;;;10366964;28;20084;-79
2021/11/29 23:31:07;;;;;;;12.93;5.60;;;;;;;;;;10362446;28;20514;-81
2021/11/29 23:36:08;;;;;;;11.43;5.57;;;;;;;;;;10376984;28;20066;-80
2021/11/29 23:41:09;;;;;;;10.27;4.93;;;;;;;;;;10376022;28;20034;-80
2021/11/29 23:46:14;;;;;;;8.95;4.65;;;;;;;;;;10373663;28;21058;-80
2021/11/29 23:51:20;;;;;;;7.10;4.57;;;;;;;;;;10345011;28;20073;-80
2021/11/29 23:56:34;;;;;;;7.07;4.35;;;;;;;;;;10399030;28;20380;-80
